METAR Reports - Misc

 

KGRB - Green Bay, Wisconsin, USA
Updated: 01/29/2023 5:53pm
Clear
Clear
 Wind from W
Wind: W 8 mph , 13 km/h
Temperature: 16°F , -9°C
Wind Chill: 5°F , -15°C
Dew Point: -0°F , -18°C
Humidity: 48%
Barometer: 30.27 inHg , 1025.1 hPa
Clouds: Clear
Visibility: 10 miles , 16 km
2023/01/29 22:53 KGRB 292253Z 27007KT 10SM CLR M09/M18 A3027 RMK AO2 SLP266 T10941183
KMCD - Mackinac Island, Michigan, USA
Updated: 01/29/2023 6:15pm
Overcast
Overcast
 Wind from WNW
Wind: WNW 10 mph , 17 km/h
Temperature: 19°F , -7°C
Wind Chill: 8°F , -13°C
Dew Point: 10°F , -12°C
Humidity: 68%
Barometer: 30.21 inHg , 1023 hPa
Clouds: Overcast
Visibility: 10 miles , 16 km
Cloud details: Overcast 4300 ft
2023/01/29 23:15 KMCD 292315Z AUTO 30009KT 10SM OVC043 M07/M12 A3021 RMK AO2 T10731125
 
K06C - Schaumburg, Illinois, USA
Updated: 01/29/2023 6:15pm
Overcast
Overcast
 Wind from NNW
Wind: NNW 8 mph , 13 km/h
Temperature: 23°F , -5°C
Wind Chill: 14°F , -10°C
Dew Point: 18°F , -8°C
Humidity: 80%
Barometer: 30.26 inHg , 1024.7 hPa
Clouds: Overcast
Visibility: 10 miles , 16 km
Cloud details: Overcast 2600 ft
2023/01/29 23:15 K06C 292315Z AUTO 34007KT 10SM OVC026 M05/M08 A3026 RMK AO2 T10551080
KCLE - Cleveland, OH, USA
Updated: 01/29/2023 5:51pm
Mist, Overcast
Mist, Overcast
 Wind from NNW
Wind: NNW 7 mph , 11 km/h
Temperature: 34°F , 1°C
Wind Chill: 28°F , -2°C
Dew Point: 30°F , -1°C
Humidity: 87%
Barometer: 30.13 inHg , 1020.3 hPa
Summary: Mist
Clouds: Overcast
Visibility: 5 miles , 8 km
Cloud details: Overcast 600 ft
2023/01/29 22:51 KCLE 292251Z 34006KT 5SM BR OVC006 01/M01 A3013 RMK AO2 SLP225 T00061011 $
 
KMMU - Morristown, New Jersey, USA
Updated: 01/29/2023 5:45pm
Mostly cloudy
Mostly cloudy
 Wind from WSW
Wind: WSW 7 mph , 11 km/h
Temperature: 48°F , 9°C
Wind Chill: 45°F , 7°C
Dew Point: 34°F , 1°C
Humidity: 58%
Barometer: 30.11 inHg , 1019.6 hPa
Clouds: Mostly cloudy
Visibility: 10 miles , 16 km
Cloud details: Mostly cloudy 9000 ft
Mostly cloudy 11000 ft
2023/01/29 22:45 KMMU 292245Z 24006KT 10SM BKN090 BKN110 09/01 A3011
KSDF - Louisville, Kentucky, USA
Updated: 01/29/2023 6:13pm
Mist, Overcast
Mist, Overcast
 Wind from S
Wind: S 5 mph , 7 km/h
Temperature: 48°F , 9°C
Wind Chill: 46°F , 8°C
Dew Point: 46°F , 8°C
Humidity: 94%
Barometer: 30.15 inHg , 1021 hPa
Summary: Mist
Clouds: Overcast
Visibility: 5 miles , 8 km
Cloud details: Few Clouds 900 ft
Overcast 1600 ft
2023/01/29 23:13 KSDF 292313Z 17004KT 5SM BR FEW009 OVC016 09/08 A3015 RMK AO2 T00890078